sensor_id;sensor_type;location;lat;lon;timestamp;P1;durP1;ratioP1;P2;durP2;ratioP2
48789;SDS011;41718;51.980;5.734;2024-02-21T00:00:20;13.98;;;7.35;;
48789;SDS011;41718;51.980;5.734;2024-02-21T00:05:23;18.08;;;8.73;;
48789;SDS011;41718;51.980;5.734;2024-02-21T00:10:25;15.98;;;9.07;;
48789;SDS011;41718;51.980;5.734;2024-02-21T00:15:27;18.75;;;7.85;;
48789;SDS011;41718;51.980;5.734;2024-02-21T00:20:30;13.73;;;6.30;;
48789;SDS011;41718;51.980;5.734;2024-02-21T00:25:32;14.55;;;7.63;;
48789;SDS011;41718;51.980;5.734;2024-02-21T00:30:35;14.30;;;7.20;;
48789;SDS011;41718;51.980;5.734;2024-02-21T00:35:39;13.93;;;8.65;;
48789;SDS011;41718;51.980;5.734;2024-02-21T00:40:41;17.65;;;7.32;;
48789;SDS011;41718;51.980;5.734;2024-02-21T00:45:43;15.23;;;7.82;;
48789;SDS011;41718;51.980;5.734;2024-02-21T00:50:46;15.32;;;8.13;;
48789;SDS011;41718;51.980;5.734;2024-02-21T00:55:49;12.73;;;8.05;;
48789;SDS011;41718;51.980;5.734;2024-02-21T01:00:51;18.77;;;8.50;;
48789;SDS011;41718;51.980;5.734;2024-02-21T01:05:54;13.07;;;6.65;;
48789;SDS011;41718;51.980;5.734;2024-02-21T01:10:56;13.50;;;6.38;;
48789;SDS011;41718;51.980;5.734;2024-02-21T01:15:58;8.70;;;5.75;;
48789;SDS011;41718;51.980;5.734;2024-02-21T01:21:00;13.07;;;5.63;;
48789;SDS011;41718;51.980;5.734;2024-02-21T01:26:03;6.15;;;4.07;;
48789;SDS011;41718;51.980;5.734;2024-02-21T01:31:05;9.07;;;5.30;;
48789;SDS011;41718;51.980;5.734;2024-02-21T01:36:07;15.88;;;5.82;;
48789;SDS011;41718;51.980;5.734;2024-02-21T01:41:10;9.52;;;5.68;;
48789;SDS011;41718;51.980;5.734;2024-02-21T01:46:12;7.93;;;4.20;;
48789;SDS011;41718;51.980;5.734;2024-02-21T01:51:14;12.82;;;6.20;;
48789;SDS011;41718;51.980;5.734;2024-02-21T01:56:17;7.38;;;4.20;;
48789;SDS011;41718;51.980;5.734;2024-02-21T02:01:19;15.27;;;5.97;;
48789;SDS011;41718;51.980;5.734;2024-02-21T02:06:22;10.32;;;5.32;;
48789;SDS011;41718;51.980;5.734;2024-02-21T02:11:24;17.55;;;5.20;;
48789;SDS011;41718;51.980;5.734;2024-02-21T02:16:26;11.95;;;6.30;;
48789;SDS011;41718;51.980;5.734;2024-02-21T02:21:29;11.52;;;6.03;;
48789;SDS011;41718;51.980;5.734;2024-02-21T02:26:33;14.45;;;6.97;;
48789;SDS011;41718;51.980;5.734;2024-02-21T02:31:36;13.77;;;7.97;;
48789;SDS011;41718;51.980;5.734;2024-02-21T02:36:39;14.13;;;6.97;;
48789;SDS011;41718;51.980;5.734;2024-02-21T02:41:41;17.70;;;8.40;;
48789;SDS011;41718;51.980;5.734;2024-02-21T02:46:43;13.30;;;8.05;;
48789;SDS011;41718;51.980;5.734;2024-02-21T02:51:45;26.33;;;8.15;;
48789;SDS011;41718;51.980;5.734;2024-02-21T02:56:47;17.75;;;7.57;;
48789;SDS011;41718;51.980;5.734;2024-02-21T03:01:50;17.98;;;8.90;;
48789;SDS011;41718;51.980;5.734;2024-02-21T03:06:52;20.77;;;7.90;;
48789;SDS011;41718;51.980;5.734;2024-02-21T03:11:55;17.95;;;7.45;;
48789;SDS011;41718;51.980;5.734;2024-02-21T03:17:03;15.18;;;7.32;;
48789;SDS011;41718;51.980;5.734;2024-02-21T03:22:06;17.67;;;7.97;;
48789;SDS011;41718;51.980;5.734;2024-02-21T03:27:09;13.93;;;8.10;;
48789;SDS011;41718;51.980;5.734;2024-02-21T03:32:11;17.67;;;7.88;;
48789;SDS011;41718;51.980;5.734;2024-02-21T03:37:13;19.73;;;9.07;;
48789;SDS011;41718;51.980;5.734;2024-02-21T03:42:15;13.55;;;6.90;;
48789;SDS011;41718;51.980;5.734;2024-02-21T03:47:18;13.65;;;7.10;;
48789;SDS011;41718;51.980;5.734;2024-02-21T03:52:19;16.98;;;7.10;;
48789;SDS011;41718;51.980;5.734;2024-02-21T03:57:21;12.25;;;7.43;;
48789;SDS011;41718;51.980;5.734;2024-02-21T04:02:23;13.38;;;6.13;;
48789;SDS011;41718;51.980;5.734;2024-02-21T04:07:25;15.90;;;6.93;;
48789;SDS011;41718;51.980;5.734;2024-02-21T04:12:27;14.55;;;7.32;;
48789;SDS011;41718;51.980;5.734;2024-02-21T04:17:30;16.80;;;6.53;;
48789;SDS011;41718;51.980;5.734;2024-02-21T04:22:32;17.25;;;6.25;;
48789;SDS011;41718;51.980;5.734;2024-02-21T04:27:35;12.98;;;5.28;;
48789;SDS011;41718;51.980;5.734;2024-02-21T04:32:37;12.63;;;5.22;;
48789;SDS011;41718;51.980;5.734;2024-02-21T04:37:39;9.43;;;5.05;;
48789;SDS011;41718;51.980;5.734;2024-02-21T04:42:41;11.65;;;5.85;;
48789;SDS011;41718;51.980;5.734;2024-02-21T04:47:44;10.60;;;5.35;;
48789;SDS011;41718;51.980;5.734;2024-02-21T04:52:46;12.50;;;5.60;;
48789;SDS011;41718;51.980;5.734;2024-02-21T04:57:49;11.80;;;6.03;;
48789;SDS011;41718;51.980;5.734;2024-02-21T05:02:51;9.88;;;6.70;;
48789;SDS011;41718;51.980;5.734;2024-02-21T05:07:53;11.80;;;5.32;;
48789;SDS011;41718;51.980;5.734;2024-02-21T05:12:55;12.30;;;5.70;;
48789;SDS011;41718;51.980;5.734;2024-02-21T05:17:58;12.35;;;6.63;;
48789;SDS011;41718;51.980;5.734;2024-02-21T05:23:01;13.52;;;6.53;;
48789;SDS011;41718;51.980;5.734;2024-02-21T05:28:03;13.38;;;5.38;;
48789;SDS011;41718;51.980;5.734;2024-02-21T05:33:07;8.60;;;5.70;;
48789;SDS011;41718;51.980;5.734;2024-02-21T05:38:09;16.95;;;7.18;;
48789;SDS011;41718;51.980;5.734;2024-02-21T05:43:13;18.05;;;7.22;;
48789;SDS011;41718;51.980;5.734;2024-02-21T05:48:15;20.55;;;9.52;;
48789;SDS011;41718;51.980;5.734;2024-02-21T05:53:18;12.85;;;6.30;;
48789;SDS011;41718;51.980;5.734;2024-02-21T05:58:20;19.05;;;8.60;;
48789;SDS011;41718;51.980;5.734;2024-02-21T06:03:23;15.27;;;8.65;;
48789;SDS011;41718;51.980;5.734;2024-02-21T06:08:25;17.52;;;7.97;;
48789;SDS011;41718;51.980;5.734;2024-02-21T06:13:27;15.75;;;8.75;;
48789;SDS011;41718;51.980;5.734;2024-02-21T06:18:29;20.50;;;7.15;;
48789;SDS011;41718;51.980;5.734;2024-02-21T06:23:31;23.02;;;8.13;;
48789;SDS011;41718;51.980;5.734;2024-02-21T06:28:33;19.23;;;8.73;;
48789;SDS011;41718;51.980;5.734;2024-02-21T06:33:36;17.52;;;7.78;;
48789;SDS011;41718;51.980;5.734;2024-02-21T06:38:38;13.88;;;6.32;;
48789;SDS011;41718;51.980;5.734;2024-02-21T06:43:40;17.58;;;7.38;;
48789;SDS011;41718;51.980;5.734;2024-02-21T06:48:42;14.27;;;6.82;;
48789;SDS011;41718;51.980;5.734;2024-02-21T06:53:48;17.50;;;10.27;;
48789;SDS011;41718;51.980;5.734;2024-02-21T06:58:50;13.55;;;6.22;;
48789;SDS011;41718;51.980;5.734;2024-02-21T07:03:52;14.45;;;6.97;;
48789;SDS011;41718;51.980;5.734;2024-02-21T07:08:54;11.55;;;5.95;;
48789;SDS011;41718;51.980;5.734;2024-02-21T07:13:56;17.27;;;7.38;;
48789;SDS011;41718;51.980;5.734;2024-02-21T07:18:58;15.60;;;5.32;;
48789;SDS011;41718;51.980;5.734;2024-02-21T07:24:00;12.52;;;6.68;;
48789;SDS011;41718;51.980;5.734;2024-02-21T07:29:02;15.07;;;6.85;;
48789;SDS011;41718;51.980;5.734;2024-02-21T07:34:04;10.27;;;5.03;;
48789;SDS011;41718;51.980;5.734;2024-02-21T07:39:06;17.60;;;5.60;;
48789;SDS011;41718;51.980;5.734;2024-02-21T07:44:08;17.33;;;6.47;;
48789;SDS011;41718;51.980;5.734;2024-02-21T07:49:10;13.73;;;7.53;;
48789;SDS011;41718;51.980;5.734;2024-02-21T07:54:12;14.40;;;7.72;;
48789;SDS011;41718;51.980;5.734;2024-02-21T07:59:16;13.20;;;6.45;;
48789;SDS011;41718;51.980;5.734;2024-02-21T08:04:18;14.80;;;8.55;;
48789;SDS011;41718;51.980;5.734;2024-02-21T08:09:20;12.18;;;6.05;;
48789;SDS011;41718;51.980;5.734;2024-02-21T08:14:24;17.27;;;7.30;;
48789;SDS011;41718;51.980;5.734;2024-02-21T08:19:26;13.63;;;5.63;;
48789;SDS011;41718;51.980;5.734;2024-02-21T08:24:30;13.73;;;6.63;;
48789;SDS011;41718;51.980;5.734;2024-02-21T08:29:32;16.75;;;7.88;;
48789;SDS011;41718;51.980;5.734;2024-02-21T08:34:34;21.50;;;6.85;;
48789;SDS011;41718;51.980;5.734;2024-02-21T08:39:36;14.02;;;6.18;;
48789;SDS011;41718;51.980;5.734;2024-02-21T08:44:39;10.93;;;6.00;;
48789;SDS011;41718;51.980;5.734;2024-02-21T08:49:42;10.05;;;5.72;;
48789;SDS011;41718;51.980;5.734;2024-02-21T08:54:44;16.80;;;6.78;;
48789;SDS011;41718;51.980;5.734;2024-02-21T08:59:46;11.55;;;6.47;;
48789;SDS011;41718;51.980;5.734;2024-02-21T09:04:48;11.77;;;7.13;;
48789;SDS011;41718;51.980;5.734;2024-02-21T09:09:50;14.50;;;7.63;;
48789;SDS011;41718;51.980;5.734;2024-02-21T09:14:52;16.73;;;7.90;;
48789;SDS011;41718;51.980;5.734;2024-02-21T09:19:54;11.07;;;5.43;;
48789;SDS011;41718;51.980;5.734;2024-02-21T09:25:00;13.23;;;6.30;;
48789;SDS011;41718;51.980;5.734;2024-02-21T09:30:05;15.52;;;7.15;;
48789;SDS011;41718;51.980;5.734;2024-02-21T09:35:08;11.13;;;6.20;;
48789;SDS011;41718;51.980;5.734;2024-02-21T09:40:11;10.15;;;5.55;;
48789;SDS011;41718;51.980;5.734;2024-02-21T09:45:20;13.95;;;5.82;;
48789;SDS011;41718;51.980;5.734;2024-02-21T09:50:26;10.05;;;4.78;;
48789;SDS011;41718;51.980;5.734;2024-02-21T09:55:29;9.40;;;4.40;;
48789;SDS011;41718;51.980;5.734;2024-02-21T10:00:35;13.38;;;5.55;;
48789;SDS011;41718;51.980;5.734;2024-02-21T10:05:38;9.32;;;5.80;;
48789;SDS011;41718;51.980;5.734;2024-02-21T10:10:44;8.45;;;5.80;;
48789;SDS011;41718;51.980;5.734;2024-02-21T10:20:59;7.07;;;4.97;;
48789;SDS011;41718;51.980;5.734;2024-02-21T10:26:07;12.88;;;4.85;;
48789;SDS011;41718;51.980;5.734;2024-02-21T10:31:21;6.80;;;4.30;;
48789;SDS011;41718;51.980;5.734;2024-02-21T10:36:27;8.40;;;4.57;;
48789;SDS011;41718;51.980;5.734;2024-02-21T10:41:30;11.63;;;5.85;;
48789;SDS011;41718;51.980;5.734;2024-02-21T10:46:32;7.05;;;3.88;;
48789;SDS011;41718;51.980;5.734;2024-02-21T10:51:39;9.05;;;5.22;;
48789;SDS011;41718;51.980;5.734;2024-02-21T10:56:45;8.77;;;4.50;;
48789;SDS011;41718;51.980;5.734;2024-02-21T11:01:50;8.68;;;4.47;;
48789;SDS011;41718;51.980;5.734;2024-02-21T11:06:55;9.23;;;4.97;;
48789;SDS011;41718;51.980;5.734;2024-02-21T11:11:58;7.75;;;5.45;;
48789;SDS011;41718;51.980;5.734;2024-02-21T11:17:17;11.20;;;5.88;;
48789;SDS011;41718;51.980;5.734;2024-02-21T11:22:22;7.15;;;4.90;;
48789;SDS011;41718;51.980;5.734;2024-02-21T11:27:26;7.38;;;4.85;;
48789;SDS011;41718;51.980;5.734;2024-02-21T11:32:28;8.82;;;5.32;;
48789;SDS011;41718;51.980;5.734;2024-02-21T11:37:32;11.10;;;5.18;;
48789;SDS011;41718;51.980;5.734;2024-02-21T11:42:40;11.30;;;4.82;;
48789;SDS011;41718;51.980;5.734;2024-02-21T11:47:42;8.95;;;4.97;;
48789;SDS011;41718;51.980;5.734;2024-02-21T11:52:45;9.75;;;5.28;;
48789;SDS011;41718;51.980;5.734;2024-02-21T11:57:49;12.75;;;4.55;;
48789;SDS011;41718;51.980;5.734;2024-02-21T12:02:51;10.30;;;3.90;;
48789;SDS011;41718;51.980;5.734;2024-02-21T12:07:54;10.73;;;4.85;;
48789;SDS011;41718;51.980;5.734;2024-02-21T12:13:08;5.97;;;4.15;;
48789;SDS011;41718;51.980;5.734;2024-02-21T12:18:11;9.80;;;5.07;;
48789;SDS011;41718;51.980;5.734;2024-02-21T12:23:13;8.65;;;4.53;;
48789;SDS011;41718;51.980;5.734;2024-02-21T12:28:15;6.47;;;3.80;;
48789;SDS011;41718;51.980;5.734;2024-02-21T12:33:18;7.65;;;5.07;;
48789;SDS011;41718;51.980;5.734;2024-02-21T12:38:20;8.30;;;4.22;;
48789;SDS011;41718;51.980;5.734;2024-02-21T12:43:23;4.90;;;4.07;;
48789;SDS011;41718;51.980;5.734;2024-02-21T12:48:25;7.53;;;4.50;;
48789;SDS011;41718;51.980;5.734;2024-02-21T12:53:27;8.55;;;4.68;;
48789;SDS011;41718;51.980;5.734;2024-02-21T13:03:35;8.77;;;4.88;;
48789;SDS011;41718;51.980;5.734;2024-02-21T13:08:37;5.78;;;4.22;;
48789;SDS011;41718;51.980;5.734;2024-02-21T13:13:40;7.07;;;4.40;;
48789;SDS011;41718;51.980;5.734;2024-02-21T13:18:42;7.28;;;4.85;;
48789;SDS011;41718;51.980;5.734;2024-02-21T13:23:51;7.00;;;4.05;;
48789;SDS011;41718;51.980;5.734;2024-02-21T13:28:54;7.05;;;5.13;;
48789;SDS011;41718;51.980;5.734;2024-02-21T13:33:58;7.68;;;4.57;;
48789;SDS011;41718;51.980;5.734;2024-02-21T13:39:06;6.95;;;4.65;;
48789;SDS011;41718;51.980;5.734;2024-02-21T13:44:14;10.68;;;4.43;;
48789;SDS011;41718;51.980;5.734;2024-02-21T13:49:16;5.72;;;3.28;;
48789;SDS011;41718;51.980;5.734;2024-02-21T13:54:18;9.68;;;3.70;;
48789;SDS011;41718;51.980;5.734;2024-02-21T13:59:23;11.45;;;3.83;;
48789;SDS011;41718;51.980;5.734;2024-02-21T14:04:27;4.28;;;3.30;;
48789;SDS011;41718;51.980;5.734;2024-02-21T14:09:34;8.55;;;4.25;;
48789;SDS011;41718;51.980;5.734;2024-02-21T14:14:43;12.90;;;3.65;;
48789;SDS011;41718;51.980;5.734;2024-02-21T14:19:46;7.00;;;3.78;;
48789;SDS011;41718;51.980;5.734;2024-02-21T14:24:51;10.10;;;4.22;;
48789;SDS011;41718;51.980;5.734;2024-02-21T14:29:58;6.22;;;2.63;;
48789;SDS011;41718;51.980;5.734;2024-02-21T14:35:04;8.13;;;3.30;;
48789;SDS011;41718;51.980;5.734;2024-02-21T14:40:09;7.25;;;2.70;;
48789;SDS011;41718;51.980;5.734;2024-02-21T14:45:15;6.78;;;3.17;;
48789;SDS011;41718;51.980;5.734;2024-02-21T14:50:20;4.00;;;2.80;;
48789;SDS011;41718;51.980;5.734;2024-02-21T14:55:22;9.18;;;3.30;;
48789;SDS011;41718;51.980;5.734;2024-02-21T15:00:25;5.60;;;3.25;;
48789;SDS011;41718;51.980;5.734;2024-02-21T15:05:33;2.88;;;2.08;;
48789;SDS011;41718;51.980;5.734;2024-02-21T15:10:36;3.67;;;2.05;;
48789;SDS011;41718;51.980;5.734;2024-02-21T15:15:41;9.40;;;3.33;;
48789;SDS011;41718;51.980;5.734;2024-02-21T15:20:45;6.00;;;2.88;;
48789;SDS011;41718;51.980;5.734;2024-02-21T15:25:49;5.00;;;2.72;;
48789;SDS011;41718;51.980;5.734;2024-02-21T15:30:55;5.07;;;3.58;;
48789;SDS011;41718;51.980;5.734;2024-02-21T15:35:58;6.30;;;2.97;;
48789;SDS011;41718;51.980;5.734;2024-02-21T15:41:01;4.68;;;2.60;;
48789;SDS011;41718;51.980;5.734;2024-02-21T15:46:03;6.80;;;3.85;;
48789;SDS011;41718;51.980;5.734;2024-02-21T15:51:08;5.10;;;3.80;;
48789;SDS011;41718;51.980;5.734;2024-02-21T15:56:11;8.02;;;3.25;;
48789;SDS011;41718;51.980;5.734;2024-02-21T16:01:20;9.85;;;3.80;;
48789;SDS011;41718;51.980;5.734;2024-02-21T16:06:26;5.13;;;3.35;;
48789;SDS011;41718;51.980;5.734;2024-02-21T16:11:29;5.25;;;2.90;;
48789;SDS011;41718;51.980;5.734;2024-02-21T16:16:34;5.53;;;3.40;;
48789;SDS011;41718;51.980;5.734;2024-02-21T16:21:38;6.35;;;3.53;;
48789;SDS011;41718;51.980;5.734;2024-02-21T16:26:40;5.63;;;3.50;;
48789;SDS011;41718;51.980;5.734;2024-02-21T16:31:49;6.40;;;2.53;;
48789;SDS011;41718;51.980;5.734;2024-02-21T16:36:55;4.68;;;3.38;;
48789;SDS011;41718;51.980;5.734;2024-02-21T16:41:59;4.97;;;3.10;;
48789;SDS011;41718;51.980;5.734;2024-02-21T16:47:04;13.48;;;5.82;;
48789;SDS011;41718;51.980;5.734;2024-02-21T16:52:12;10.23;;;5.30;;
48789;SDS011;41718;51.980;5.734;2024-02-21T16:57:16;5.35;;;2.97;;
48789;SDS011;41718;51.980;5.734;2024-02-21T17:02:19;5.95;;;3.40;;
48789;SDS011;41718;51.980;5.734;2024-02-21T17:07:22;6.82;;;2.58;;
48789;SDS011;41718;51.980;5.734;2024-02-21T17:12:27;7.35;;;4.00;;
48789;SDS011;41718;51.980;5.734;2024-02-21T17:17:34;2.85;;;2.40;;
48789;SDS011;41718;51.980;5.734;2024-02-21T17:22:37;5.43;;;3.22;;
48789;SDS011;41718;51.980;5.734;2024-02-21T17:27:39;4.93;;;3.20;;
48789;SDS011;41718;51.980;5.734;2024-02-21T17:32:41;8.15;;;3.35;;
48789;SDS011;41718;51.980;5.734;2024-02-21T17:37:43;9.57;;;3.25;;
48789;SDS011;41718;51.980;5.734;2024-02-21T17:42:46;7.43;;;3.38;;
48789;SDS011;41718;51.980;5.734;2024-02-21T17:47:49;3.22;;;2.40;;
48789;SDS011;41718;51.980;5.734;2024-02-21T17:52:52;5.68;;;2.85;;
48789;SDS011;41718;51.980;5.734;2024-02-21T17:57:57;4.20;;;3.15;;
48789;SDS011;41718;51.980;5.734;2024-02-21T18:03:22;8.35;;;2.80;;
48789;SDS011;41718;51.980;5.734;2024-02-21T18:09:17;3.65;;;2.30;;
48789;SDS011;41718;51.980;5.734;2024-02-21T18:14:35;8.38;;;3.45;;
48789;SDS011;41718;51.980;5.734;2024-02-21T18:19:37;6.47;;;3.30;;
48789;SDS011;41718;51.980;5.734;2024-02-21T18:24:40;7.95;;;3.95;;
48789;SDS011;41718;51.980;5.734;2024-02-21T18:29:42;5.40;;;3.25;;
48789;SDS011;41718;51.980;5.734;2024-02-21T18:34:47;5.82;;;3.13;;
48789;SDS011;41718;51.980;5.734;2024-02-21T18:39:49;3.90;;;3.50;;
48789;SDS011;41718;51.980;5.734;2024-02-21T18:44:51;4.70;;;3.70;;
48789;SDS011;41718;51.980;5.734;2024-02-21T18:49:55;7.43;;;3.90;;
48789;SDS011;41718;51.980;5.734;2024-02-21T18:54:57;6.00;;;3.95;;
48789;SDS011;41718;51.980;5.734;2024-02-21T18:59:59;5.25;;;3.08;;
48789;SDS011;41718;51.980;5.734;2024-02-21T19:05:08;8.80;;;4.15;;
48789;SDS011;41718;51.980;5.734;2024-02-21T19:10:10;10.40;;;4.22;;
48789;SDS011;41718;51.980;5.734;2024-02-21T19:15:14;5.35;;;4.00;;
48789;SDS011;41718;51.980;5.734;2024-02-21T19:20:16;11.57;;;4.00;;
48789;SDS011;41718;51.980;5.734;2024-02-21T19:25:29;9.57;;;3.72;;
48789;SDS011;41718;51.980;5.734;2024-02-21T19:30:34;5.70;;;3.92;;
48789;SDS011;41718;51.980;5.734;2024-02-21T19:35:54;4.55;;;3.60;;
48789;SDS011;41718;51.980;5.734;2024-02-21T19:41:08;6.03;;;4.20;;
48789;SDS011;41718;51.980;5.734;2024-02-21T19:46:10;5.55;;;4.07;;
48789;SDS011;41718;51.980;5.734;2024-02-21T19:51:12;9.50;;;4.05;;
48789;SDS011;41718;51.980;5.734;2024-02-21T19:56:20;4.07;;;3.30;;
48789;SDS011;41718;51.980;5.734;2024-02-21T20:01:22;7.18;;;4.13;;
48789;SDS011;41718;51.980;5.734;2024-02-21T20:06:29;5.78;;;3.90;;
48789;SDS011;41718;51.980;5.734;2024-02-21T20:11:34;7.60;;;3.97;;
48789;SDS011;41718;51.980;5.734;2024-02-21T20:16:38;5.00;;;4.47;;
48789;SDS011;41718;51.980;5.734;2024-02-21T20:21:41;5.63;;;4.25;;
48789;SDS011;41718;51.980;5.734;2024-02-21T20:26:45;6.13;;;3.85;;
48789;SDS011;41718;51.980;5.734;2024-02-21T20:31:49;4.85;;;4.30;;
48789;SDS011;41718;51.980;5.734;2024-02-21T20:36:58;6.00;;;4.40;;
48789;SDS011;41718;51.980;5.734;2024-02-21T20:42:08;5.88;;;3.72;;
48789;SDS011;41718;51.980;5.734;2024-02-21T20:47:10;5.60;;;4.35;;
48789;SDS011;41718;51.980;5.734;2024-02-21T20:52:17;4.70;;;3.30;;
48789;SDS011;41718;51.980;5.734;2024-02-21T20:57:21;5.93;;;3.55;;
48789;SDS011;41718;51.980;5.734;2024-02-21T21:02:26;8.43;;;3.60;;
48789;SDS011;41718;51.980;5.734;2024-02-21T21:07:32;4.85;;;3.85;;
48789;SDS011;41718;51.980;5.734;2024-02-21T21:12:34;4.63;;;3.20;;
48789;SDS011;41718;51.980;5.734;2024-02-21T21:17:37;4.97;;;3.05;;
48789;SDS011;41718;51.980;5.734;2024-02-21T21:22:39;5.75;;;3.45;;
48789;SDS011;41718;51.980;5.734;2024-02-21T21:27:44;3.78;;;3.28;;
48789;SDS011;41718;51.980;5.734;2024-02-21T21:32:48;3.38;;;2.97;;
48789;SDS011;41718;51.980;5.734;2024-02-21T21:37:51;4.90;;;3.50;;
48789;SDS011;41718;51.980;5.734;2024-02-21T21:42:54;2.60;;;2.40;;
48789;SDS011;41718;51.980;5.734;2024-02-21T21:47:57;4.63;;;3.30;;
48789;SDS011;41718;51.980;5.734;2024-02-21T21:53:00;5.65;;;3.20;;
48789;SDS011;41718;51.980;5.734;2024-02-21T21:58:08;3.42;;;2.92;;
48789;SDS011;41718;51.980;5.734;2024-02-21T22:03:11;3.45;;;2.83;;
48789;SDS011;41718;51.980;5.734;2024-02-21T22:08:23;4.32;;;3.03;;
48789;SDS011;41718;51.980;5.734;2024-02-21T22:13:28;4.32;;;2.80;;
48789;SDS011;41718;51.980;5.734;2024-02-21T22:18:36;3.40;;;2.45;;
48789;SDS011;41718;51.980;5.734;2024-02-21T22:23:41;3.30;;;2.83;;
48789;SDS011;41718;51.980;5.734;2024-02-21T22:28:46;5.03;;;2.70;;
48789;SDS011;41718;51.980;5.734;2024-02-21T22:33:51;3.08;;;2.47;;
48789;SDS011;41718;51.980;5.734;2024-02-21T22:38:54;4.45;;;2.63;;
48789;SDS011;41718;51.980;5.734;2024-02-21T22:44:01;3.50;;;2.50;;
48789;SDS011;41718;51.980;5.734;2024-02-21T22:49:04;5.22;;;2.65;;
48789;SDS011;41718;51.980;5.734;2024-02-21T22:54:08;3.28;;;2.35;;
48789;SDS011;41718;51.980;5.734;2024-02-21T22:59:12;2.55;;;2.17;;
48789;SDS011;41718;51.980;5.734;2024-02-21T23:04:16;4.75;;;3.00;;
48789;SDS011;41718;51.980;5.734;2024-02-21T23:09:18;2.38;;;2.17;;
48789;SDS011;41718;51.980;5.734;2024-02-21T23:14:20;6.22;;;2.58;;
48789;SDS011;41718;51.980;5.734;2024-02-21T23:19:23;4.38;;;3.08;;
48789;SDS011;41718;51.980;5.734;2024-02-21T23:24:26;3.80;;;2.25;;
48789;SDS011;41718;51.980;5.734;2024-02-21T23:29:30;2.83;;;2.45;;
48789;SDS011;41718;51.980;5.734;2024-02-21T23:34:40;3.97;;;2.53;;
48789;SDS011;41718;51.980;5.734;2024-02-21T23:39:45;2.63;;;2.40;;
48789;SDS011;41718;51.980;5.734;2024-02-21T23:44:47;3.33;;;2.15;;
48789;SDS011;41718;51.980;5.734;2024-02-21T23:49:56;2.67;;;2.47;;
48789;SDS011;41718;51.980;5.734;2024-02-21T23:55:00;2.92;;;2.63;;
